Morning Clara — 9V7564 — position and weather

sailwx.info

Track history (hours):
 
Tides and Currents Weather Stations Pressure Air Temp Water Temp Dewpoint Dewpoint Depression Visibility Wind Speed Wind Dir Waves Ship Positions

Morning Clara

Last reported at 2017-Aug-15 04:31 UTC. Time now 2017-Aug-19 20:39 UTC.
Position N 01°23' E 103°16'.

Length 200 m; draft 9.3 m.

Type: Cargo ship. MMSI: 564254000.

Date/timePositionNaut miles runAvg speedWind from/ knotsBaromVisibWave heightAir tempDewpointWater temp
2017-Aug-15 04:31N 01°23' E 103°16'518.8
2017-Aug-15 04:13N 01°19' E 103°20'419.4
2017-Aug-15 04:00N 01°16' E 103°23'1019.4
2017-Aug-15 03:30N 01°12' E 103°32'918.5
2017-Aug-15 03:00N 01°10' E 103°41'611.9
2017-Aug-15 02:30N 01°10' E 103°47'5 9.7
2017-Aug-15 02:00N 01°12' E 103°51'5 9.4
2017-Aug-15 01:30N 01°15' E 103°55'3 0.4
2017-Aug-14 18:53N 01°17' E 103°56'0 0.0
2017-Aug-14 17:23N 01°17' E 103°56'0 0.0
2017-Aug-14 16:59N 01°17' E 103°56'0 0.0
2017-Aug-14 15:17N 01°17' E 103°56'0 0.0
2017-Aug-14 14:59N 01°17' E 103°56'0 0.0
2017-Aug-14 14:29N 01°17' E 103°56'0 0.0
2017-Aug-14 13:44N 01°17' E 103°56'0 0.0
2017-Aug-14 13:26N 01°17' E 103°56'0 0.0
2017-Aug-14 12:56N 01°17' E 103°56'0 0.0
2017-Aug-14 11:44N 01°17' E 103°56'0 0.0
2017-Aug-14 11:20N 01°17' E 103°56'0 0.0
2017-Aug-14 10:44N 01°17' E 103°56'0 0.0
2017-Aug-14 09:11N 01°17' E 103°56'0 0.0
2017-Aug-14 08:35N 01°17' E 103°56'1 2.2
2017-Aug-14 08:14N 01°17' E 103°56'2 9.0
2017-Aug-14 07:59N 01°16' E 103°58'  
2017-Aug-09 15:02N 29°37' E 123°02'119.0
2017-Aug-09 15:00N 29°37' E 123°02'1518.4
2017-Aug-09 14:11N 29°51' E 123°09'518.6
2017-Aug-09 13:56N 29°55' E 123°11'1018.5
2017-Aug-09 13:24N 30°05' E 123°12'7614.9
2017-Aug-09 08:20N 31°06' E 122°20'513.6
2017-Aug-09 07:59N 31°08' E 122°15'715.0
2017-Aug-09 07:31N 31°12' E 122°08'714.5
2017-Aug-09 07:00N 31°15' E 122°00'713.3
2017-Aug-09 06:30N 31°16' E 121°53'713.6
2017-Aug-09 06:00N 31°18' E 121°45'4 7.4
2017-Aug-09 05:29N 31°19' E 121°41'0 0.1
2017-Aug-09 04:59N 31°19' E 121°41'0 0.0
2017-Aug-09 04:29N 31°19' E 121°41'0 0.0
2017-Aug-09 03:59N 31°19' E 121°41'0 0.0
2017-Aug-09 03:29N 31°19' E 121°41'0 0.0
2017-Aug-09 02:59N 31°19' E 121°41'0 0.0
2017-Aug-09 02:23N 31°19' E 121°41'0 0.0
2017-Aug-09 01:59N 31°19' E 121°41'0 0.0
2017-Aug-09 01:26N 31°19' E 121°41'0 0.0
2017-Aug-09 00:59N 31°19' E 121°41'0 0.0
2017-Aug-09 00:29N 31°19' E 121°41'0 0.0
2017-Aug-08 23:59N 31°19' E 121°41'0 0.0
2017-Aug-08 23:29N 31°19' E 121°41'0 0.0
2017-Aug-08 22:59N 31°19' E 121°41'0 0.0
2017-Aug-08 22:29N 31°19' E 121°41'0 0.0
2017-Aug-08 21:59N 31°19' E 121°41'0 0.0
2017-Aug-08 21:29N 31°19' E 121°41'0 0.0
2017-Aug-08 20:53N 31°19' E 121°41'0 0.0
2017-Aug-08 20:29N 31°19' E 121°41'0 0.0
2017-Aug-08 19:59N 31°19' E 121°41'0 0.0
2017-Aug-08 19:29N 31°19' E 121°41'0 0.0
2017-Aug-08 18:56N 31°19' E 121°41'0 0.0
2017-Aug-08 18:29N 31°19' E 121°41'0 0.0
2017-Aug-08 17:59N 31°19' E 121°41'0 0.0
2017-Aug-08 17:29N 31°19' E 121°41'0 1.0
2017-Aug-08 17:00N 31°20' E 121°41'4 7.5
2017-Aug-08 16:30N 31°18' E 121°45'611.5
2017-Aug-08 16:00N 31°16' E 121°52'612.1
2017-Aug-08 15:30N 31°15' E 121°59'611.4
2017-Aug-08 15:00N 31°14' E 122°05'612.0
2017-Aug-08 14:30N 31°11' E 122°11'612.7
2017-Aug-08 14:00N 31°07' E 122°17'510.9
2017-Aug-08 13:31N 31°06' E 122°23'9 8.4
2017-Aug-08 12:28N 31°07' E 122°33'1910.9
2017-Aug-08 10:46N 31°08' E 122°55'312.9
2017-Aug-08 10:30N 31°08' E 122°59'16 2.1
2017-Aug-08 02:32N 31°17' E 123°15'3 1.9
2017-Aug-08 01:06N 31°14' E 123°17'0 1.9
2017-Aug-08 01:00N 31°14' E 123°17'3 1.0
2017-Aug-07 22:31N 31°12' E 123°19'0 0.3
2017-Aug-07 22:28N 31°12' E 123°19'0 0.5
2017-Aug-07 22:00N 31°13' E 123°19'0 0.7
2017-Aug-07 21:22N 31°13' E 123°19'0 0.9
2017-Aug-07 20:57N 31°13' E 123°19'0 1.1
2017-Aug-07 20:30N 31°14' E 123°18'1 1.2
2017-Aug-07 20:00N 31°14' E 123°18'1 1.2
2017-Aug-07 19:29N 31°14' E 123°17'1 1.4
2017-Aug-07 18:59N 31°14' E 123°16'1 1.7
2017-Aug-07 18:28N 31°14' E 123°15'3 5.5
2017-Aug-07 18:00N 31°15' E 123°12'611.4
2017-Aug-07 17:26N 31°19' E 123°07'3 3.9
2017-Aug-07 16:46N 31°21' E 123°05'0 0.6
2017-Aug-07 16:30N 31°21' E 123°05'3 1.9
2017-Aug-07 14:58N 31°18' E 123°06'3 2.3
2017-Aug-07 13:52N 31°17' E 123°08'1 0.4
2017-Aug-07 10:30N 31°15' E 123°08'1 1.2
2017-Aug-07 09:54N 31°16' E 123°09'1 1.8
2017-Aug-07 09:24N 31°15' E 123°09'4 9.7
2017-Aug-07 08:58N 31°11' E 123°09'510.0
2017-Aug-07 08:30N 31°06' E 123°10'4 8.6
2017-Aug-07 08:00N 31°04' E 123°14'0 0.4
2017-Aug-07 07:30N 31°04' E 123°15'0 0.9
2017-Aug-07 07:00N 31°05' E 123°15'1 0.6
2017-Aug-07 05:54N 31°05' E 123°15'0 0.1
2017-Aug-07 03:47N 31°05' E 123°15'3 1.5
2017-Aug-07 01:48N 31°07' E 123°12'0 0.9
2017-Aug-07 01:25N 31°07' E 123°12'0 0.9
2017-Aug-07 00:52N 31°07' E 123°13'0 0.7
2017-Aug-07 00:28N 31°07' E 123°13'1 0.8
2017-Aug-06 23:19N 31°06' E 123°13'1 3.4
2017-Aug-06 22:55N 31°04' E 123°13'2 2.1
2017-Aug-06 21:58N 31°02' E 123°13'1 0.6
2017-Aug-06 21:11N 31°03' E 123°13'0 0.7
2017-Aug-06 20:55N 31°03' E 123°13'0 0.9
2017-Aug-06 20:28N 31°03' E 123°13'0 0.9
2017-Aug-06 19:59N 31°04' E 123°13'0 0.5
2017-Aug-06 19:30N 31°04' E 123°12'2 4.8
2017-Aug-06 18:59N 31°06' E 123°14'4 6.5
2017-Aug-06 18:25N 31°09' E 123°17'0 0.8
2017-Aug-06 18:00N 31°09' E 123°17'1 0.7
2017-Aug-06 16:46N 31°08' E 123°16'0 0.8
2017-Aug-06 16:09N 31°08' E 123°16'0 1.0
2017-Aug-06 15:54N 31°07' E 123°16'0 1.2
2017-Aug-06 15:30N 31°07' E 123°16'3 2.2
2017-Aug-06 14:07N 31°07' E 123°13'1 1.6
2017-Aug-06 13:40N 31°08' E 123°12'0 1.8
2017-Aug-06 13:29N 31°07' E 123°12'1 2.1
2017-Aug-06 13:00N 31°07' E 123°13'3 5.9
2017-Aug-06 12:27N 31°04' E 123°12'2 5.1
2017-Aug-06 11:58N 31°03' E 123°09'1 1.4
2017-Aug-06 11:28N 31°03' E 123°10'2 1.1
2017-Aug-06 09:59N 31°03' E 123°11'  
Track history (hours):
 
Tides and Currents Weather Stations Pressure Air Temp Water Temp Dewpoint Dewpoint Depression Visibility Wind Speed Wind Dir Waves Ship Positions

Morning Clara

Last reported at 2017-Aug-15 04:31 UTC. Time now 2017-Aug-19 20:39 UTC.
Position N 01°23' E 103°16'.

Length 200 m; draft 9.3 m.

Type: Cargo ship. MMSI: 564254000.

Date/timePositionNaut miles runAvg speedWind from/ knotsBaromVisibWave heightAir tempDewpointWater temp
2017-Aug-15 04:31N 01°23' E 103°16'518.8
2017-Aug-15 04:13N 01°19' E 103°20'419.4
2017-Aug-15 04:00N 01°16' E 103°23'1019.4
2017-Aug-15 03:30N 01°12' E 103°32'918.5
2017-Aug-15 03:00N 01°10' E 103°41'611.9
2017-Aug-15 02:30N 01°10' E 103°47'5 9.7
2017-Aug-15 02:00N 01°12' E 103°51'5 9.4
2017-Aug-15 01:30N 01°15' E 103°55'3 0.4
2017-Aug-14 18:53N 01°17' E 103°56'0 0.0
2017-Aug-14 17:23N 01°17' E 103°56'0 0.0
2017-Aug-14 16:59N 01°17' E 103°56'0 0.0
2017-Aug-14 15:17N 01°17' E 103°56'0 0.0
2017-Aug-14 14:59N 01°17' E 103°56'0 0.0
2017-Aug-14 14:29N 01°17' E 103°56'0 0.0
2017-Aug-14 13:44N 01°17' E 103°56'0 0.0
2017-Aug-14 13:26N 01°17' E 103°56'0 0.0
2017-Aug-14 12:56N 01°17' E 103°56'0 0.0
2017-Aug-14 11:44N 01°17' E 103°56'0 0.0
2017-Aug-14 11:20N 01°17' E 103°56'0 0.0
2017-Aug-14 10:44N 01°17' E 103°56'0 0.0
2017-Aug-14 09:11N 01°17' E 103°56'0 0.0
2017-Aug-14 08:35N 01°17' E 103°56'1 2.2
2017-Aug-14 08:14N 01°17' E 103°56'2 9.0
2017-Aug-14 07:59N 01°16' E 103°58'  
2017-Aug-09 15:02N 29°37' E 123°02'119.0
2017-Aug-09 15:00N 29°37' E 123°02'1518.4
2017-Aug-09 14:11N 29°51' E 123°09'518.6
2017-Aug-09 13:56N 29°55' E 123°11'1018.5
2017-Aug-09 13:24N 30°05' E 123°12'7614.9
2017-Aug-09 08:20N 31°06' E 122°20'513.6
2017-Aug-09 07:59N 31°08' E 122°15'715.0
2017-Aug-09 07:31N 31°12' E 122°08'714.5
2017-Aug-09 07:00N 31°15' E 122°00'713.3
2017-Aug-09 06:30N 31°16' E 121°53'713.6
2017-Aug-09 06:00N 31°18' E 121°45'4 7.4
2017-Aug-09 05:29N 31°19' E 121°41'0 0.1
2017-Aug-09 04:59N 31°19' E 121°41'0 0.0
2017-Aug-09 04:29N 31°19' E 121°41'0 0.0
2017-Aug-09 03:59N 31°19' E 121°41'0 0.0
2017-Aug-09 03:29N 31°19' E 121°41'0 0.0
2017-Aug-09 02:59N 31°19' E 121°41'0 0.0
2017-Aug-09 02:23N 31°19' E 121°41'0 0.0
2017-Aug-09 01:59N 31°19' E 121°41'0 0.0
2017-Aug-09 01:26N 31°19' E 121°41'0 0.0
2017-Aug-09 00:59N 31°19' E 121°41'0 0.0
2017-Aug-09 00:29N 31°19' E 121°41'0 0.0
2017-Aug-08 23:59N 31°19' E 121°41'0 0.0
2017-Aug-08 23:29N 31°19' E 121°41'0 0.0
2017-Aug-08 22:59N 31°19' E 121°41'0 0.0
2017-Aug-08 22:29N 31°19' E 121°41'0 0.0
2017-Aug-08 21:59N 31°19' E 121°41'0 0.0
2017-Aug-08 21:29N 31°19' E 121°41'0 0.0
2017-Aug-08 20:53N 31°19' E 121°41'0 0.0
2017-Aug-08 20:29N 31°19' E 121°41'0 0.0
2017-Aug-08 19:59N 31°19' E 121°41'0 0.0
2017-Aug-08 19:29N 31°19' E 121°41'0 0.0
2017-Aug-08 18:56N 31°19' E 121°41'0 0.0
2017-Aug-08 18:29N 31°19' E 121°41'0 0.0
2017-Aug-08 17:59N 31°19' E 121°41'0 0.0
2017-Aug-08 17:29N 31°19' E 121°41'0 1.0
2017-Aug-08 17:00N 31°20' E 121°41'4 7.5
2017-Aug-08 16:30N 31°18' E 121°45'611.5
2017-Aug-08 16:00N 31°16' E 121°52'612.1
2017-Aug-08 15:30N 31°15' E 121°59'611.4
2017-Aug-08 15:00N 31°14' E 122°05'612.0
2017-Aug-08 14:30N 31°11' E 122°11'612.7
2017-Aug-08 14:00N 31°07' E 122°17'510.9
2017-Aug-08 13:31N 31°06' E 122°23'9 8.4
2017-Aug-08 12:28N 31°07' E 122°33'1910.9
2017-Aug-08 10:46N 31°08' E 122°55'312.9
2017-Aug-08 10:30N 31°08' E 122°59'16 2.1
2017-Aug-08 02:32N 31°17' E 123°15'3 1.9
2017-Aug-08 01:06N 31°14' E 123°17'0 1.9
2017-Aug-08 01:00N 31°14' E 123°17'3 1.0
2017-Aug-07 22:31N 31°12' E 123°19'0 0.3
2017-Aug-07 22:28N 31°12' E 123°19'0 0.5
2017-Aug-07 22:00N 31°13' E 123°19'0 0.7
2017-Aug-07 21:22N 31°13' E 123°19'0 0.9
2017-Aug-07 20:57N 31°13' E 123°19'0 1.1
2017-Aug-07 20:30N 31°14' E 123°18'1 1.2
2017-Aug-07 20:00N 31°14' E 123°18'1 1.2
2017-Aug-07 19:29N 31°14' E 123°17'1 1.4
2017-Aug-07 18:59N 31°14' E 123°16'1 1.7
2017-Aug-07 18:28N 31°14' E 123°15'3 5.5
2017-Aug-07 18:00N 31°15' E 123°12'611.4
2017-Aug-07 17:26N 31°19' E 123°07'3 3.9
2017-Aug-07 16:46N 31°21' E 123°05'0 0.6
2017-Aug-07 16:30N 31°21' E 123°05'3 1.9
2017-Aug-07 14:58N 31°18' E 123°06'3 2.3
2017-Aug-07 13:52N 31°17' E 123°08'1 0.4
2017-Aug-07 10:30N 31°15' E 123°08'1 1.2
2017-Aug-07 09:54N 31°16' E 123°09'1 1.8
2017-Aug-07 09:24N 31°15' E 123°09'4 9.7
2017-Aug-07 08:58N 31°11' E 123°09'510.0
2017-Aug-07 08:30N 31°06' E 123°10'4 8.6
2017-Aug-07 08:00N 31°04' E 123°14'0 0.4
2017-Aug-07 07:30N 31°04' E 123°15'0 0.9
2017-Aug-07 07:00N 31°05' E 123°15'1 0.6
2017-Aug-07 05:54N 31°05' E 123°15'0 0.1
2017-Aug-07 03:47N 31°05' E 123°15'3 1.5
2017-Aug-07 01:48N 31°07' E 123°12'0 0.9
2017-Aug-07 01:25N 31°07' E 123°12'0 0.9
2017-Aug-07 00:52N 31°07' E 123°13'0 0.7
2017-Aug-07 00:28N 31°07' E 123°13'1 0.8
2017-Aug-06 23:19N 31°06' E 123°13'1 3.4
2017-Aug-06 22:55N 31°04' E 123°13'2 2.1
2017-Aug-06 21:58N 31°02' E 123°13'1 0.6
2017-Aug-06 21:11N 31°03' E 123°13'0 0.7
2017-Aug-06 20:55N 31°03' E 123°13'0 0.9
2017-Aug-06 20:28N 31°03' E 123°13'0 0.9
2017-Aug-06 19:59N 31°04' E 123°13'0 0.5
2017-Aug-06 19:30N 31°04' E 123°12'2 4.8
2017-Aug-06 18:59N 31°06' E 123°14'4 6.5
2017-Aug-06 18:25N 31°09' E 123°17'0 0.8
2017-Aug-06 18:00N 31°09' E 123°17'1 0.7
2017-Aug-06 16:46N 31°08' E 123°16'0 0.8
2017-Aug-06 16:09N 31°08' E 123°16'0 1.0
2017-Aug-06 15:54N 31°07' E 123°16'0 1.2
2017-Aug-06 15:30N 31°07' E 123°16'3 2.2
2017-Aug-06 14:07N 31°07' E 123°13'1 1.6
2017-Aug-06 13:40N 31°08' E 123°12'0 1.8
2017-Aug-06 13:29N 31°07' E 123°12'1 2.1
2017-Aug-06 13:00N 31°07' E 123°13'3 5.9
2017-Aug-06 12:27N 31°04' E 123°12'2 5.1
2017-Aug-06 11:58N 31°03' E 123°09'1 1.4
2017-Aug-06 11:28N 31°03' E 123°10'2 1.1
2017-Aug-06 09:59N 31°03' E 123°11'  

Dump ship's entire track history